Time;durP1;ratioP1;P1;durP2;ratioP2;P2;SDS_P1;SDS_P2;PMS_P1;PMS_P2;Temp;Humidity;BMP_temperature;BMP_pressure;BME280_temperature;BME280_humidity;BME280_pressure;Samples;Min_cycle;Max_cycle;Signal;HPM_P1;HPM_P2
2022/06/10 00:00:45;;;;;;;3.33;1.38;;;;;;;16.87;50.44;101994.03;4911088;28;115186;-67
2022/06/10 00:03:14;;;;;;;4.95;2.10;;;;;;;16.88;50.66;101995.75;4907092;28;114322;-67
2022/06/10 00:05:44;;;;;;;3.65;1.60;;;;;;;16.88;50.68;101995.75;4906917;28;123919;-67
2022/06/10 00:08:13;;;;;;;3.38;1.80;;;;;;;16.88;50.69;101990.41;4906946;28;124078;-67
2022/06/10 00:10:41;;;;;;;5.50;2.00;;;;;;;16.89;50.66;101997.47;4908411;28;114376;-67
2022/06/10 00:13:09;;;;;;;6.00;1.50;;;;;;;16.87;50.50;101999.38;4909467;28;114651;-67
2022/06/10 00:15:36;;;;;;;4.60;1.60;;;;;;;16.85;50.63;101993.22;4910298;28;124546;-67
2022/06/10 00:18:05;;;;;;;4.85;1.85;;;;;;;16.84;50.70;101990.63;4909309;28;124301;-67
2022/06/10 00:20:39;;;;;;;4.20;2.10;;;;;;;16.81;50.68;101994.31;4905688;28;114332;-67
2022/06/10 00:23:08;;;;;;;3.42;1.60;;;;;;;16.77;50.67;101995.44;4912486;28;114253;-67
2022/06/10 00:25:36;;;;;;;3.00;1.70;;;;;;;16.75;50.84;102005.34;4911064;28;124675;-67
2022/06/10 00:28:05;;;;;;;3.92;1.60;;;;;;;16.71;50.85;102001.13;4909363;28;123895;-67
2022/06/10 00:30:35;;;;;;;5.65;1.90;;;;;;;16.66;50.95;102000.47;4913019;28;113506;-67
2022/06/10 00:33:03;;;;;;;4.50;1.75;;;;;;;16.60;50.82;102000.81;4907772;28;114558;-67
2022/06/10 00:35:32;;;;;;;5.18;1.90;;;;;;;16.58;51.17;101997.34;4909263;28;123919;-66
2022/06/10 00:38:00;;;;;;;5.55;2.22;;;;;;;16.53;51.26;101995.75;4904560;28;124937;-66
2022/06/10 00:40:35;;;;;;;6.85;3.08;;;;;;;16.49;51.42;101988.84;4909663;28;115569;-67
2022/06/10 00:43:02;;;;;;;;;;;;;;;16.45;50.84;101997.97;4909072;28;114974;-67
2022/06/10 00:45:48;;;;;;;4.15;2.22;;;;;;;16.44;51.04;101998.03;4907293;28;124224;-66
2022/06/10 00:48:27;;;;;;;5.65;2.45;;;;;;;16.41;51.40;101991.06;4904555;28;124268;-66
2022/06/10 00:50:56;;;;;;;5.57;2.35;;;;;;;16.38;51.48;101991.19;4908892;28;114745;-66
2022/06/10 00:53:30;;;;;;;5.47;2.38;;;;;;;16.35;51.82;101983.34;4906942;28;114186;-68
2022/06/10 00:56:00;;;;;;;6.72;2.40;;;;;;;16.33;51.57;101982.53;4901732;28;124041;-66
2022/06/10 00:58:35;;;;;;;6.70;2.70;;;;;;;16.32;51.75;101996.88;4900043;28;124170;-66
2022/06/10 01:01:03;;;;;;;6.30;2.90;;;;;;;16.30;51.80;101988.06;4907822;28;114143;-67
2022/06/10 01:03:31;;;;;;;6.55;2.20;;;;;;;16.27;51.81;101990.88;4912800;28;114084;-66
2022/06/10 01:05:59;;;;;;;5.13;2.80;;;;;;;16.26;52.06;101992.69;4907763;28;123823;-67
2022/06/10 01:08:27;;;;;;;4.45;2.47;;;;;;;16.24;52.01;101999.06;4900738;28;124493;-66
2022/06/10 01:11:09;;;;;;;4.88;2.35;;;;;;;16.21;52.20;101985.84;4903344;28;114265;-66
2022/06/10 01:14:11;;;;;;;5.20;2.45;;;;;;;16.19;52.24;101993.09;4910431;28;113982;-66
2022/06/10 01:17:01;;;;;;;8.40;2.78;;;;;;;16.18;52.21;101999.34;4898465;28;124302;-66
2022/06/10 01:20:09;;;;;;;6.05;2.83;;;;;;;16.15;52.29;101993.22;4901485;28;123970;-66
2022/06/10 01:22:55;;;;;;;9.07;2.97;;;;;;;16.15;52.41;101990.56;4902890;28;114208;-65
2022/06/10 01:25:43;;;;;;;8.20;2.88;;;;;;;16.17;52.61;101992.31;4902091;28;112963;-64
2022/06/10 01:28:24;;;;;;;8.80;2.95;;;;;;;16.17;52.75;101987.81;4907848;28;123820;-64
2022/06/10 01:31:31;;;;;;;8.05;3.20;;;;;;;16.19;52.91;101993.09;4902607;28;123733;-67
2022/06/10 01:34:13;;;;;;;6.10;2.90;;;;;;;16.19;53.05;101985.06;4903068;28;115222;-64
2022/06/10 01:36:56;;;;;;;9.20;3.42;;;;;;;16.22;53.02;101990.25;4903369;28;115215;-65
2022/06/10 01:39:48;;;;;;;7.43;3.33;;;;;;;16.24;53.09;101983.03;4906501;28;124005;-64
2022/06/10 01:42:41;;;;;;;8.40;2.92;;;;;;;16.26;53.19;101983.81;4920983;28;123251;-64
2022/06/10 01:45:17;;;;;;;6.82;3.10;;;;;;;16.28;53.17;101984.59;4897821;28;114282;-64
2022/06/10 01:47:52;;;;;;;10.43;3.42;;;;;;;16.29;53.32;101980.97;4909010;28;113129;-65
2022/06/10 01:50:30;;;;;;;6.05;2.90;;;;;;;16.31;53.32;101979.09;4914206;28;123321;-66
2022/06/10 01:53:07;;;;;;;5.93;3.28;;;;;;;16.32;53.34;101981.69;4902307;28;123973;-67
2022/06/10 01:55:43;;;;;;;6.82;3.30;;;;;;;16.32;53.54;101986.16;4898725;28;114720;-65
2022/06/10 01:58:14;;;;;;;7.35;3.00;;;;;;;16.34;53.62;101981.59;4898835;28;115228;-65
2022/06/10 02:00:46;;;;;;;7.53;3.08;;;;;;;16.35;53.57;101980.69;4895089;28;123872;-65
2022/06/10 02:03:22;;;;;;;6.82;2.88;;;;;;;16.36;53.60;101982.41;4909117;28;123878;-65
2022/06/10 02:06:00;;;;;;;8.07;3.13;;;;;;;16.38;53.71;101977.84;4909426;28;113506;-65
2022/06/10 02:08:31;;;;;;;6.97;3.30;;;;;;;16.38;53.93;101977.84;4900632;28;113736;-65
2022/06/10 02:11:04;;;;;;;6.93;3.03;;;;;;;16.42;53.90;101981.22;4902208;28;123890;-65
2022/06/10 02:13:37;;;;;;;6.22;3.60;;;;;;;16.42;53.80;101987.41;4903725;28;123721;-65
2022/06/10 02:16:09;;;;;;;11.25;3.30;;;;;;;16.44;54.04;101980.19;4901750;28;114162;-66
2022/06/10 02:18:50;;;;;;;8.43;3.03;;;;;;;16.48;54.15;101984.44;4899773;28;113047;-65
2022/06/10 02:21:57;;;;;;;10.93;2.97;;;;;;;16.51;54.08;101997.66;4905207;28;124025;-65
2022/06/10 02:24:34;;;;;;;5.72;2.95;;;;;;;16.55;54.23;101993.84;4902143;28;124527;-66
2022/06/10 02:27:09;;;;;;;7.93;2.90;;;;;;;16.60;54.46;101998.13;4897592;28;114964;-66
2022/06/10 02:30:09;;;;;;;7.25;2.63;;;;;;;16.65;54.32;102004.09;4903089;28;114737;-66
2022/06/10 02:32:38;;;;;;;6.28;2.70;;;;;;;16.71;54.36;102009.13;4898885;28;124440;-68
2022/06/10 02:35:12;;;;;;;7.72;2.55;;;;;;;16.75;54.50;102005.34;4904028;28;123578;-69
2022/06/10 02:38:05;;;;;;;5.68;2.53;;;;;;;16.80;54.43;101997.06;4896596;28;114640;-68
2022/06/10 02:40:44;;;;;;;7.57;2.60;;;;;;;16.84;54.17;101996.00;4902103;28;114218;-68
2022/06/10 02:43:40;;;;;;;8.73;2.75;;;;;;;16.88;54.45;101998.44;4901513;28;124560;-68
2022/06/10 02:46:21;;;;;;;8.38;2.65;;;;;;;16.91;54.41;101992.94;4897131;28;124632;-67
2022/06/10 02:49:08;;;;;;;10.27;3.13;;;;;;;16.97;54.31;102001.56;4906686;28;113240;-68
2022/06/10 02:51:36;;;;;;;11.00;3.08;;;;;;;17.00;54.12;102004.94;4906215;28;114473;-68
2022/06/10 02:54:08;;;;;;;11.23;2.95;;;;;;;17.03;54.31;102003.94;4903498;28;124035;-68
2022/06/10 02:56:35;;;;;;;9.65;2.42;;;;;;;17.06;54.21;102014.44;4899610;28;124283;-68
2022/06/10 03:02:04;;;;;;;8.88;2.95;;;;;;;17.12;54.13;102014.13;4902190;28;114613;-68
2022/06/10 03:05:06;;;;;;;9.35;2.78;;;;;;;17.14;54.26;102006.91;4901314;28;124379;-69
2022/06/10 03:07:43;;;;;;;7.68;2.83;;;;;;;17.18;54.30;102008.44;4880343;28;122588;-69
2022/06/10 03:10:21;;;;;;;16.40;3.78;;;;;;;17.22;54.23;102010.00;4903591;28;113154;-68
2022/06/10 03:13:19;;;;;;;13.70;3.35;;;;;;;17.25;54.44;102020.56;4897921;28;114157;-69
2022/06/10 03:16:05;;;;;;;11.07;3.17;;;;;;;17.27;54.36;102013.31;4893970;28;124126;-68
2022/06/10 03:18:55;;;;;;;10.75;3.25;;;;;;;17.32;54.17;102010.38;4898490;28;124575;-68
2022/06/10 03:21:50;;;;;;;12.57;3.30;;;;;;;17.35;54.52;102022.72;4898275;28;115356;-68
2022/06/10 03:24:25;;;;;;;7.25;3.30;;;;;;;17.38;54.21;102014.53;4906791;28;114147;-68
2022/06/10 03:27:10;;;;;;;9.52;3.03;;;;;;;17.41;54.33;102009.00;4902304;28;124048;-69
2022/06/10 03:29:50;;;;;;;10.00;3.13;;;;;;;17.44;54.25;102008.81;4905329;28;124080;-69
2022/06/10 03:32:33;;;;;;;12.57;3.03;;;;;;;17.47;54.19;102008.66;4897668;28;114387;-68
2022/06/10 03:35:10;;;;;;;9.00;2.60;;;;;;;17.49;54.34;102012.13;4902279;28;113955;-69
2022/06/10 03:37:39;;;;;;;8.45;3.10;;;;;;;17.51;54.23;102004.84;4903825;28;124712;-68
2022/06/10 03:40:13;;;;;;;12.40;3.00;;;;;;;17.53;54.29;102008.31;4898935;28;124579;-69
2022/06/10 03:42:47;;;;;;;10.27;2.97;;;;;;;17.55;54.33;102001.03;4900035;28;114392;-69
2022/06/10 03:45:18;;;;;;;12.35;2.95;;;;;;;17.57;54.22;102009.84;4904110;28;114018;-69
2022/06/10 03:47:46;;;;;;;11.27;2.88;;;;;;;17.59;54.15;102012.47;4896044;28;123958;-69
2022/06/10 03:50:17;;;;;;;11.98;2.95;;;;;;;17.60;54.36;102020.41;4903905;28;123640;-69
2022/06/10 03:52:45;;;;;;;11.07;2.97;;;;;;;17.63;54.26;102025.63;4895909;28;114542;-69
2022/06/10 03:55:16;;;;;;;10.25;2.80;;;;;;;17.64;54.43;102027.31;4900904;28;113852;-69
2022/06/10 03:57:45;;;;;;;13.82;3.00;;;;;;;17.65;54.33;102039.78;4892019;28;124241;-66
2022/06/10 04:00:15;;;;;;;9.38;3.15;;;;;;;17.68;54.46;102044.09;4907398;28;123693;-65
2022/06/10 04:02:43;;;;;;;10.27;3.28;;;;;;;17.68;54.44;102036.91;4897900;28;113248;-65
2022/06/10 04:05:11;;;;;;;12.23;3.20;;;;;;;17.70;54.47;102037.69;4898724;28;114245;-65
2022/06/10 04:07:40;;;;;;;11.63;2.80;;;;;;;17.73;54.67;102046.53;4921009;28;122255;-66
2022/06/10 04:10:12;;;;;;;10.60;2.58;;;;;;;17.74;54.65;102048.25;4908512;28;123787;-66
2022/06/10 04:12:39;;;;;;;12.63;2.95;;;;;;;17.77;54.71;102053.44;4904991;28;114803;-66
2022/06/10 04:15:07;;;;;;;9.07;2.67;;;;;;;17.79;54.77;102054.22;4907397;28;114988;-66
2022/06/10 04:17:35;;;;;;;9.60;2.95;;;;;;;17.81;55.03;102055.00;4911202;28;123714;-69
2022/06/10 04:20:03;;;;;;;6.63;2.60;;;;;;;17.84;54.95;102049.47;4900721;28;123783;-68
2022/06/10 04:22:30;;;;;;;7.22;2.97;;;;;;;17.87;55.17;102049.31;4910319;28;114718;-68
2022/06/10 04:24:58;;;;;;;9.18;2.47;;;;;;;17.91;55.31;102056.22;4902603;28;113772;-69
2022/06/10 04:27:25;;;;;;;13.45;3.10;;;;;;;17.95;55.40;102055.13;4901059;28;123980;-69
2022/06/10 04:29:52;;;;;;;10.43;2.78;;;;;;;17.98;55.36;102062.97;4914313;28;124227;-68
2022/06/10 04:32:19;;;;;;;8.38;2.40;;;;;;;18.02;55.47;102064.53;4901311;28;114562;-68
2022/06/10 04:34:46;;;;;;;5.90;2.42;;;;;;;18.05;55.31;102064.34;4910241;28;114741;-68
2022/06/10 04:37:13;;;;;;;6.68;2.22;;;;;;;18.08;55.51;102069.56;4908263;28;124855;-68
2022/06/10 04:39:40;;;;;;;6.78;2.65;;;;;;;18.14;55.47;102070.13;4910113;28;123723;-69
2022/06/10 04:42:08;;;;;;;7.97;2.70;;;;;;;18.17;55.21;102061.94;4901773;28;114113;-68
2022/06/10 04:44:35;;;;;;;9.05;2.60;;;;;;;18.18;55.43;102063.69;4910350;28;113148;-68
2022/06/10 04:47:02;;;;;;;9.43;2.53;;;;;;;18.22;55.50;102065.22;4911867;28;123749;-69
2022/06/10 04:49:30;;;;;;;6.47;2.47;;;;;;;18.24;55.37;102072.22;4907915;28;124325;-70
2022/06/10 04:51:57;;;;;;;10.68;2.78;;;;;;;18.28;55.27;102064.84;4905855;28;114192;-67
2022/06/10 04:54:24;;;;;;;10.32;2.90;;;;;;;18.31;55.46;102067.38;4907695;28;114111;-68
2022/06/10 04:56:51;;;;;;;9.02;2.83;;;;;;;18.33;55.50;102054.72;4902486;28;124243;-67
2022/06/10 04:59:18;;;;;;;10.00;2.42;;;;;;;18.37;55.37;102058.09;4903124;28;124517;-69
2022/06/10 05:01:45;;;;;;;5.68;2.50;;;;;;;18.38;55.37;102060.66;4902684;28;115052;-69
2022/06/10 05:04:13;;;;;;;7.95;2.70;;;;;;;18.41;55.34;102065.88;4900889;28;114870;-67
2022/06/10 05:06:40;;;;;;;10.25;2.80;;;;;;;18.43;55.54;102069.31;4898041;28;125590;-64
2022/06/10 05:09:07;;;;;;;8.70;2.60;;;;;;;18.47;55.64;102065.50;4902882;28;124051;-64
2022/06/10 05:11:34;;;;;;;6.22;2.40;;;;;;;18.49;55.18;102063.59;4900564;28;114253;-64
2022/06/10 05:14:01;;;;;;;10.85;2.50;;;;;;;18.54;55.52;102070.53;4907949;28;113786;-64
2022/06/10 05:16:29;;;;;;;7.22;2.50;;;;;;;18.56;55.40;102069.47;4905389;28;124402;-64
2022/06/10 05:18:57;;;;;;;10.65;2.63;;;;;;;18.59;55.53;102073.78;4902295;28;124308;-64
2022/06/10 05:21:24;;;;;;;8.15;2.78;;;;;;;18.62;55.54;102073.59;4906331;28;114426;-64
2022/06/10 05:23:51;;;;;;;7.32;2.33;;;;;;;18.64;55.59;102069.88;4911260;28;114226;-64
2022/06/10 05:26:18;;;;;;;9.32;2.55;;;;;;;18.66;55.41;102062.59;4904301;28;124111;-64
2022/06/10 05:28:49;;;;;;;9.63;2.83;;;;;;;18.69;55.59;102058.88;4901447;28;124611;-65
2022/06/10 05:31:16;;;;;;;10.88;3.40;;;;;;;18.76;55.55;102062.03;4912916;28;114677;-65
2022/06/10 05:36:30;;;;;;;7.68;2.85;;;;;;;18.91;55.66;102057.59;4903658;28;124226;-64
2022/06/10 05:38:58;;;;;;;6.20;2.70;;;;;;;18.98;55.64;102058.94;4905320;28;123814;-68
2022/06/10 05:44:11;;;;;;;6.68;2.70;;;;;;;19.10;55.64;102058.22;4907461;28;113645;-68
2022/06/10 05:46:38;;;;;;;8.10;2.97;;;;;;;19.16;55.53;102057.81;4903735;28;124027;-68
2022/06/10 05:49:05;;;;;;;6.43;2.70;;;;;;;19.22;55.43;102068.19;4901071;28;123628;-68
2022/06/10 05:51:33;;;;;;;7.25;2.80;;;;;;;19.29;55.42;102073.16;4901232;28;115281;-67
2022/06/10 05:54:01;;;;;;;7.63;2.50;;;;;;;19.32;55.37;102073.84;4901049;28;115266;-68
2022/06/10 05:56:28;;;;;;;7.60;2.05;;;;;;;19.37;55.01;102076.25;4906353;28;124154;-68
2022/06/10 05:58:55;;;;;;;6.40;2.50;;;;;;;19.42;55.16;102068.75;4901815;28;123691;-67
2022/06/10 06:01:22;;;;;;;5.28;2.42;;;;;;;19.48;55.17;102073.75;4900662;28;113827;-67
2022/06/10 06:03:51;;;;;;;8.60;2.55;;;;;;;19.55;55.15;102069.72;4898621;28;114139;-65
2022/06/10 06:06:19;;;;;;;4.97;2.38;;;;;;;19.61;55.17;102077.38;4899107;28;124712;-66
2022/06/10 06:08:48;;;;;;;9.77;2.83;;;;;;;19.67;55.02;102072.59;4899052;28;124582;-66
2022/06/10 06:11:17;;;;;;;5.72;2.42;;;;;;;19.69;54.89;102076.91;4917552;28;114823;-65
2022/06/10 06:13:44;;;;;;;9.38;2.72;;;;;;;19.73;54.93;102077.59;4899551;28;114590;-67
2022/06/10 06:16:14;;;;;;;6.50;2.60;;;;;;;19.77;55.04;102073.75;4902104;28;123913;-67
2022/06/10 06:18:42;;;;;;;7.28;2.60;;;;;;;19.79;55.14;102061.06;4901557;28;123850;-64
2022/06/10 06:21:10;;;;;;;4.57;1.92;;;;;;;19.82;54.99;102071.63;4899965;28;114690;-64
2022/06/10 06:23:38;;;;;;;9.65;2.50;;;;;;;19.85;54.97;102060.66;4901725;28;114253;-64
2022/06/10 06:26:05;;;;;;;6.38;2.10;;;;;;;19.88;54.84;102065.84;4900910;28;125588;-62
2022/06/10 06:28:32;;;;;;;7.30;2.22;;;;;;;19.93;55.05;102069.13;4901439;28;124030;-62
2022/06/10 06:30:59;;;;;;;6.75;1.88;;;;;;;19.98;54.94;102069.66;4901894;28;114318;-62
2022/06/10 06:33:26;;;;;;;5.63;2.25;;;;;;;20.06;55.08;102068.28;4898548;28;113992;-65
2022/06/10 06:35:54;;;;;;;6.68;1.85;;;;;;;20.13;55.18;102073.16;4896862;28;123800;-63
2022/06/10 06:38:23;;;;;;;6.00;2.03;;;;;;;20.22;55.03;102074.41;4896297;28;124211;-63
2022/06/10 06:40:50;;;;;;;6.43;1.73;;;;;;;20.30;55.13;102071.19;4908359;28;115250;-62
2022/06/10 06:43:17;;;;;;;7.43;1.75;;;;;;;20.36;54.92;102066.28;4895383;28;114809;-63
2022/06/10 06:45:44;;;;;;;4.95;1.70;;;;;;;20.44;55.15;102063.06;4903628;28;124649;-65
2022/06/10 06:48:12;;;;;;;4.70;1.45;;;;;;;20.53;54.96;102072.34;4901394;28;123763;-64
2022/06/10 06:50:46;;;;;;;11.32;1.90;;;;;;;20.63;55.05;102076.19;4903918;28;114346;-64
2022/06/10 06:53:13;;;;;;;5.22;1.67;;;;;;;20.72;54.78;102078.25;4900288;28;113847;-65
2022/06/10 06:55:42;;;;;;;4.20;1.45;;;;;;;20.79;54.73;102074.16;4904135;28;124417;-65
2022/06/10 06:58:16;;;;;;;5.75;1.52;;;;;;;20.87;54.89;102083.53;4894922;28;124429;-65
2022/06/10 07:00:46;;;;;;;7.90;1.88;;;;;;;20.97;54.43;102088.19;4898137;28;114286;-64
2022/06/10 07:03:14;;;;;;;3.92;1.33;;;;;;;21.05;54.51;102074.16;4906153;28;113453;-65
2022/06/10 07:05:42;;;;;;;4.78;1.40;;;;;;;21.11;53.93;102079.13;4897124;28;124001;-64
2022/06/10 07:08:10;;;;;;;5.00;1.35;;;;;;;21.15;53.88;102080.66;4894312;28;123855;-65
2022/06/10 07:10:38;;;;;;;3.78;1.10;;;;;;;21.20;53.80;102078.47;4902310;28;114612;-65
2022/06/10 07:13:06;;;;;;;5.40;1.42;;;;;;;21.26;53.69;102081.72;4902278;28;114044;-65
2022/06/10 07:15:37;;;;;;;4.93;1.40;;;;;;;21.31;53.42;102090.34;4901199;28;124164;-65
2022/06/10 07:18:04;;;;;;;5.55;1.30;;;;;;;21.34;53.34;102085.59;4895993;28;123371;-65
2022/06/10 07:20:33;;;;;;;5.45;1.40;;;;;;;21.39;53.30;102085.25;4899136;28;114851;-65
2022/06/10 07:23:02;;;;;;;4.97;1.27;;;;;;;21.43;53.08;102092.16;4899299;28;116552;-65
2022/06/10 07:25:30;;;;;;;6.82;1.48;;;;;;;21.45;53.15;102087.53;4896466;28;124127;-65
2022/06/10 07:27:58;;;;;;;5.82;2.13;;;;;;;21.49;52.98;102091.78;4896310;28;124168;-64
2022/06/10 07:30:28;;;;;;;5.38;1.65;;;;;;;21.54;52.74;102086.88;4905942;28;114471;-64
2022/06/10 07:32:57;;;;;;;5.75;1.83;;;;;;;21.58;52.74;102092.94;4896203;28;115197;-65
2022/06/10 07:35:24;;;;;;;8.85;1.75;;;;;;;21.61;52.53;102091.88;4891356;28;124106;-66
2022/06/10 07:37:52;;;;;;;6.45;1.70;;;;;;;21.65;52.34;102087.97;4894584;28;123906;-67
2022/06/10 07:43:35;;;;;;;4.37;1.60;;;;;;;21.74;52.34;102088.16;4902205;28;113851;-67
2022/06/10 07:46:04;;;;;;;4.40;1.67;;;;;;;21.81;52.63;102087.72;4904684;28;124757;-67
2022/06/10 07:48:31;;;;;;;6.47;1.80;;;;;;;21.87;52.52;102082.75;4906310;28;125495;-67
2022/06/10 07:50:59;;;;;;;3.90;1.83;;;;;;;21.99;52.67;102080.13;4914929;28;114314;-66
2022/06/10 07:53:29;;;;;;;7.20;1.90;;;;;;;22.10;52.80;102082.88;4911992;28;114586;-67
2022/06/10 07:55:57;;;;;;;8.88;1.60;;;;;;;22.19;52.50;102084.91;4910890;28;124415;-67
2022/06/10 07:58:25;;;;;;;6.10;2.08;;;;;;;22.32;52.43;102084.84;4910110;28;124496;-67
2022/06/10 08:00:52;;;;;;;5.65;1.70;;;;;;;22.43;52.07;102079.50;4910923;28;114977;-64
2022/06/10 08:03:20;;;;;;;4.85;1.77;;;;;;;22.54;52.29;102078.69;4913228;28;114541;-64
2022/06/10 08:05:47;;;;;;;5.15;1.50;;;;;;;22.67;51.97;102075.91;4913605;28;124534;-65
2022/06/10 08:08:17;;;;;;;5.18;1.73;;;;;;;22.77;51.42;102081.47;4910906;28;124637;-67
2022/06/10 08:10:45;;;;;;;7.15;1.48;;;;;;;22.83;50.85;102081.88;4907974;28;114414;-64
2022/06/10 08:13:13;;;;;;;4.13;1.48;;;;;;;22.89;50.84;102085.94;4903675;28;114056;-64
2022/06/10 08:15:43;;;;;;;5.88;2.22;;;;;;;22.96;50.58;102091.69;4910661;28;124109;-65
2022/06/10 08:18:12;;;;;;;3.72;1.30;;;;;;;23.02;50.75;102092.09;4901312;28;123826;-64
2022/06/10 08:23:29;;;;;;;5.15;1.40;;;;;;;23.18;50.52;102090.91;4913011;28;115030;-64
2022/06/10 08:26:00;;;;;;;3.53;1.40;;;;;;;23.27;50.52;102090.19;4910562;28;123510;-64
2022/06/10 08:28:27;;;;;;;5.80;1.63;;;;;;;23.35;50.42;102085.03;4894818;28;124480;-67
2022/06/10 08:30:55;;;;;;;4.53;1.50;;;;;;;23.45;50.22;102088.75;4909971;28;114172;-67
2022/06/10 08:33:22;;;;;;;3.75;1.30;;;;;;;23.55;50.13;102088.00;4897032;28;114278;-67
2022/06/10 08:35:49;;;;;;;3.15;1.25;;;;;;;23.64;49.86;102087.22;4894456;28;125087;-67
2022/06/10 08:38:17;;;;;;;3.53;1.20;;;;;;;23.72;49.45;102079.38;4915959;28;122727;-67
2022/06/10 08:41:06;;;;;;;4.30;1.27;;;;;;;23.77;49.44;102077.16;4898258;28;113053;-67
2022/06/10 08:43:55;;;;;;;3.83;1.50;;;;;;;23.82;49.31;102084.91;4900923;28;113792;-67
2022/06/10 08:46:25;;;;;;;2.28;1.20;;;;;;;23.86;49.18;102081.81;4925987;28;123150;-67
2022/06/10 08:49:13;;;;;;;3.78;1.13;;;;;;;23.93;49.15;102081.34;4903819;28;123894;-67
2022/06/10 08:51:51;;;;;;;5.72;1.38;;;;;;;23.98;48.78;102079.09;4906798;28;114723;-67
2022/06/10 08:54:46;;;;;;;5.38;1.40;;;;;;;24.05;49.03;102074.91;4906163;28;113882;-67
2022/06/10 08:57:36;;;;;;;5.95;1.40;;;;;;;24.11;48.74;102074.41;4911866;28;124121;-67
2022/06/10 09:00:24;;;;;;;3.83;1.10;;;;;;;24.16;48.20;102072.16;4914042;28;123495;-67
2022/06/10 09:03:11;;;;;;;2.30;0.80;;;;;;;24.13;47.98;102072.44;4903330;28;113108;-67
2022/06/10 09:06:07;;;;;;;5.07;1.30;;;;;;;24.15;48.50;102065.03;4913732;28;114649;-67
2022/06/10 09:08:38;;;;;;;3.53;1.10;;;;;;;24.19;48.08;102066.50;4912260;28;124162;-67
2022/06/10 09:11:13;;;;;;;4.15;1.00;;;;;;;24.23;47.93;102073.38;4912364;28;124157;-67
2022/06/10 09:13:44;;;;;;;;;;;;;;;24.25;48.50;102070.53;4913391;28;115235;-67
2022/06/10 09:16:31;;;;;;;6.18;1.00;;;;;;;24.33;48.34;102072.59;4901011;28;114842;-67
2022/06/10 09:19:23;;;;;;;5.35;1.20;;;;;;;24.43;48.19;102062.69;4897063;28;124396;-67
2022/06/10 09:22:07;;;;;;;4.20;1.10;;;;;;;24.48;47.92;102065.88;4903236;28;123702;-64
2022/06/10 09:24:38;;;;;;;3.63;1.00;;;;;;;24.56;47.41;102063.41;4911041;28;114357;-64
2022/06/10 09:27:32;;;;;;;4.28;1.08;;;;;;;24.59;46.71;102074.00;4914472;28;114241;-64
2022/06/10 09:30:03;;;;;;;5.53;1.30;;;;;;;24.62;46.91;102076.44;4901246;28;124056;-64
2022/06/10 09:32:59;;;;;;;6.35;1.27;;;;;;;24.64;47.08;102071.75;4913327;28;122211;-64
2022/06/10 09:35:48;;;;;;;5.15;1.30;;;;;;;24.70;47.02;102075.78;4912199;28;114164;-64
2022/06/10 09:38:25;;;;;;;7.60;1.50;;;;;;;24.75;46.70;102072.66;4906711;28;114317;-64
2022/06/10 09:41:10;;;;;;;4.53;1.20;;;;;;;24.80;46.78;102070.44;4905305;28;124591;-65
2022/06/10 09:43:56;;;;;;;5.25;1.25;;;;;;;24.86;46.65;102072.59;4903645;28;124223;-67
2022/06/10 09:46:52;;;;;;;4.32;1.10;;;;;;;24.94;47.09;102078.25;4904416;28;114877;-68
2022/06/10 09:49:32;;;;;;;4.55;1.25;;;;;;;25.02;46.61;102064.88;4906986;28;113865;-67
2022/06/10 09:52:16;;;;;;;4.85;1.30;;;;;;;25.08;46.33;102068.03;4903516;28;124088;-67
2022/06/10 09:54:56;;;;;;;5.18;1.50;;;;;;;25.14;46.57;102072.91;4908004;28;123603;-67
2022/06/10 09:57:23;;;;;;;4.18;1.33;;;;;;;25.27;46.78;102062.75;4905978;28;114131;-67
2022/06/10 10:00:13;;;;;;;5.20;1.60;;;;;;;25.42;46.59;102066.78;4905316;28;114034;-64
2022/06/10 10:02:45;;;;;;;5.70;1.70;;;;;;;25.58;46.35;102070.84;4909180;28;124578;-64
2022/06/10 10:05:19;;;;;;;5.30;1.27;;;;;;;25.67;45.78;102070.03;4905037;28;124346;-65
2022/06/10 10:08:03;;;;;;;6.75;1.63;;;;;;;25.75;45.71;102072.91;4906179;28;114380;-64
2022/06/10 10:10:33;;;;;;;6.07;1.40;;;;;;;25.78;45.25;102072.63;4904410;28;115425;-64
2022/06/10 10:13:35;;;;;;;7.22;1.40;;;;;;;25.81;45.53;102066.94;4904301;28;124816;-64
2022/06/10 10:16:32;;;;;;;3.33;1.40;;;;;;;25.87;45.25;102070.09;4903346;28;124579;-65
2022/06/10 10:19:24;;;;;;;6.07;1.48;;;;;;;25.90;45.05;102064.38;4903775;28;114259;-65
2022/06/10 10:22:03;;;;;;;5.32;1.35;;;;;;;25.89;45.01;102068.09;4909827;28;113599;-64
2022/06/10 10:24:38;;;;;;;6.13;1.55;;;;;;;25.88;44.71;102061.81;4910730;28;124231;-65
2022/06/10 10:27:32;;;;;;;5.32;1.50;;;;;;;25.93;45.38;102064.13;4895738;28;123886;-65
2022/06/10 10:30:20;;;;;;;4.50;1.25;;;;;;;25.96;45.08;102059.28;4897497;28;114808;-66
2022/06/10 10:33:08;;;;;;;6.57;1.60;;;;;;;26.00;45.26;102066.13;4897268;28;114418;-67
2022/06/10 10:35:48;;;;;;;5.63;2.05;;;;;;;26.06;45.31;102064.72;4905679;28;123310;-67
2022/06/10 10:38:41;;;;;;;6.18;1.58;;;;;;;26.17;45.43;102064.59;4910417;28;123907;-67
2022/06/10 10:41:25;;;;;;;3.40;1.50;;;;;;;26.26;45.00;102064.72;4905732;28;114489;-67
2022/06/10 10:44:00;;;;;;;6.28;1.92;;;;;;;26.34;44.96;102075.75;4910512;28;114318;-67
2022/06/10 10:46:27;;;;;;;;;;;;;;;26.34;45.58;102070.31;4910396;28;125059;-66
2022/06/10 10:48:57;;;;;;;4.68;1.60;;;;;;;26.42;45.27;102065.03;4912820;28;123855;-66
2022/06/10 10:51:40;;;;;;;4.68;1.65;;;;;;;26.52;45.21;102074.03;4902101;28;114754;-66
2022/06/10 10:54:31;;;;;;;7.90;2.40;;;;;;;26.62;44.78;102060.47;4896743;28;114527;-66
2022/06/10 10:56:59;;;;;;;6.90;2.30;;;;;;;26.68;44.94;102064.47;4898018;28;124133;-66
2022/06/10 10:59:37;;;;;;;5.45;2.22;;;;;;;26.78;44.51;102065.31;4903084;28;124279;-66
2022/06/10 11:02:25;;;;;;;6.25;2.10;;;;;;;26.86;44.54;102062.72;4894258;28;114939;-66
2022/06/10 11:05:15;;;;;;;5.28;1.85;;;;;;;26.90;44.35;102068.72;4892425;28;114734;-66
2022/06/10 11:07:45;;;;;;;5.65;1.88;;;;;;;26.89;43.85;102056.97;4895390;28;123890;-66
2022/06/10 11:10:23;;;;;;;5.03;2.00;;;;;;;26.85;43.90;102069.16;4895100;28;123973;-66
2022/06/10 11:12:51;;;;;;;7.55;2.08;;;;;;;26.84;44.08;102059.28;4894682;28;115422;-66
2022/06/10 11:15:28;;;;;;;4.80;1.77;;;;;;;26.86;44.24;102053.69;4922244;28;112944;-66
2022/06/10 11:17:57;;;;;;;6.63;2.05;;;;;;;26.91;44.28;102068.56;4896566;28;124463;-66
2022/06/10 11:20:36;;;;;;;7.43;1.88;;;;;;;27.03;44.04;102062.94;4900445;28;124003;-66
2022/06/10 11:23:21;;;;;;;5.10;2.08;;;;;;;27.16;44.05;102068.91;4925045;28;113990;-64
2022/06/10 11:26:13;;;;;;;5.25;2.20;;;;;;;27.27;43.69;102070.66;4896131;28;113089;-64
2022/06/10 11:28:43;;;;;;;7.40;2.00;;;;;;;27.32;43.72;102063.75;4893910;28;123829;-64
2022/06/10 11:31:50;;;;;;;6.45;2.40;;;;;;;27.42;44.12;102057.41;4923498;28;122739;-64
2022/06/10 11:34:34;;;;;;;3.75;1.60;;;;;;;27.56;44.32;102055.06;4897390;28;114278;-64
2022/06/10 11:37:21;;;;;;;8.55;2.30;;;;;;;27.65;43.54;102053.28;4895121;28;113827;-63
2022/06/10 11:39:59;;;;;;;9.25;2.28;;;;;;;27.67;43.37;102056.72;4920207;28;123907;-64
2022/06/10 11:42:41;;;;;;;6.72;1.88;;;;;;;27.64;43.00;102057.00;4897224;28;123741;-66
2022/06/10 11:45:18;;;;;;;5.22;1.90;;;;;;;27.57;43.12;102050.44;4904271;28;114203;-66
2022/06/10 11:47:58;;;;;;;5.93;2.42;;;;;;;27.49;42.46;102053.09;4893059;28;113997;-64
2022/06/10 11:50:33;;;;;;;4.95;1.98;;;;;;;27.37;42.71;102050.56;4892856;28;124207;-64
2022/06/10 11:53:12;;;;;;;4.82;1.95;;;;;;;27.32;42.80;102047.44;4905987;28;123993;-64
2022/06/10 11:55:42;;;;;;;5.35;2.40;;;;;;;27.25;42.55;102045.41;4896922;28;114751;-64
2022/06/10 12:01:05;;;;;;;4.80;1.85;;;;;;;27.07;42.63;102048.06;4908384;28;123925;-64
2022/06/10 12:03:58;;;;;;;5.88;1.83;;;;;;;26.95;42.74;102045.50;4900365;28;124728;-64
2022/06/10 12:06:34;;;;;;;5.07;1.70;;;;;;;26.85;43.11;102039.25;4892828;28;115785;-66
2022/06/10 12:09:17;;;;;;;7.75;2.53;;;;;;;26.77;43.06;102041.84;4900010;28;113872;-64